sensor_id;sensor_type;location;lat;lon;timestamp;temperature;humidity
28484;DHT22;15704;48.834;8.736;2023-08-08T00:01:16;12.90;99.90
28484;DHT22;15704;48.834;8.736;2023-08-08T00:03:43;12.90;99.90
28484;DHT22;15704;48.834;8.736;2023-08-08T00:06:10;12.90;99.90
28484;DHT22;15704;48.834;8.736;2023-08-08T00:08:37;12.80;99.90
28484;DHT22;15704;48.834;8.736;2023-08-08T00:11:04;12.80;99.90
28484;DHT22;15704;48.834;8.736;2023-08-08T00:13:30;12.80;99.90
28484;DHT22;15704;48.834;8.736;2023-08-08T00:15:57;12.70;99.90
28484;DHT22;15704;48.834;8.736;2023-08-08T00:18:24;12.60;99.90
28484;DHT22;15704;48.834;8.736;2023-08-08T00:20:51;12.60;99.90
28484;DHT22;15704;48.834;8.736;2023-08-08T00:23:18;12.50;99.90
28484;DHT22;15704;48.834;8.736;2023-08-08T00:25:45;12.50;99.90
28484;DHT22;15704;48.834;8.736;2023-08-08T00:28:17;12.50;99.90
28484;DHT22;15704;48.834;8.736;2023-08-08T00:30:44;12.50;99.90
28484;DHT22;15704;48.834;8.736;2023-08-08T00:33:11;12.50;99.90
28484;DHT22;15704;48.834;8.736;2023-08-08T00:39:25;12.60;99.90
28484;DHT22;15704;48.834;8.736;2023-08-08T00:41:52;12.60;99.90
28484;DHT22;15704;48.834;8.736;2023-08-08T00:44:19;12.60;99.90
28484;DHT22;15704;48.834;8.736;2023-08-08T00:46:45;12.50;99.90
28484;DHT22;15704;48.834;8.736;2023-08-08T00:49:12;12.60;99.90
28484;DHT22;15704;48.834;8.736;2023-08-08T00:51:39;12.60;99.90
28484;DHT22;15704;48.834;8.736;2023-08-08T00:54:07;12.70;99.90
28484;DHT22;15704;48.834;8.736;2023-08-08T00:56:35;12.80;99.90
28484;DHT22;15704;48.834;8.736;2023-08-08T00:59:03;12.80;99.90
28484;DHT22;15704;48.834;8.736;2023-08-08T01:01:30;12.90;99.90
28484;DHT22;15704;48.834;8.736;2023-08-08T01:03:57;12.90;99.90
28484;DHT22;15704;48.834;8.736;2023-08-08T01:06:49;12.90;99.90
28484;DHT22;15704;48.834;8.736;2023-08-08T01:09:31;13.00;99.90
28484;DHT22;15704;48.834;8.736;2023-08-08T01:11:59;13.00;99.90
28484;DHT22;15704;48.834;8.736;2023-08-08T01:14:29;13.00;99.90
28484;DHT22;15704;48.834;8.736;2023-08-08T01:16:57;13.00;99.90
28484;DHT22;15704;48.834;8.736;2023-08-08T01:19:28;13.10;99.90
28484;DHT22;15704;48.834;8.736;2023-08-08T01:21:59;13.00;99.90
28484;DHT22;15704;48.834;8.736;2023-08-08T01:24:27;13.00;99.90
28484;DHT22;15704;48.834;8.736;2023-08-08T01:26:56;13.00;99.90
28484;DHT22;15704;48.834;8.736;2023-08-08T01:29:23;12.90;99.90
28484;DHT22;15704;48.834;8.736;2023-08-08T01:31:50;12.80;99.90
28484;DHT22;15704;48.834;8.736;2023-08-08T01:34:17;12.80;99.90
28484;DHT22;15704;48.834;8.736;2023-08-08T01:36:46;12.70;99.90
28484;DHT22;15704;48.834;8.736;2023-08-08T01:39:20;12.70;99.90
28484;DHT22;15704;48.834;8.736;2023-08-08T01:41:50;12.60;99.90
28484;DHT22;15704;48.834;8.736;2023-08-08T01:44:17;12.50;99.90
28484;DHT22;15704;48.834;8.736;2023-08-08T01:46:45;12.50;99.90
28484;DHT22;15704;48.834;8.736;2023-08-08T01:49:12;12.40;99.90
28484;DHT22;15704;48.834;8.736;2023-08-08T01:51:39;12.40;99.90
28484;DHT22;15704;48.834;8.736;2023-08-08T01:54:05;12.50;99.90
28484;DHT22;15704;48.834;8.736;2023-08-08T01:56:32;12.50;99.90
28484;DHT22;15704;48.834;8.736;2023-08-08T01:58:59;12.40;99.90
28484;DHT22;15704;48.834;8.736;2023-08-08T02:01:26;12.40;99.90
28484;DHT22;15704;48.834;8.736;2023-08-08T02:03:56;12.40;99.90
28484;DHT22;15704;48.834;8.736;2023-08-08T02:06:23;12.30;99.90
28484;DHT22;15704;48.834;8.736;2023-08-08T02:08:50;12.30;99.90
28484;DHT22;15704;48.834;8.736;2023-08-08T02:11:16;12.20;99.90
28484;DHT22;15704;48.834;8.736;2023-08-08T02:13:43;12.30;99.90
28484;DHT22;15704;48.834;8.736;2023-08-08T02:16:10;12.30;99.90
28484;DHT22;15704;48.834;8.736;2023-08-08T02:18:37;12.20;99.90
28484;DHT22;15704;48.834;8.736;2023-08-08T02:21:07;12.20;99.90
28484;DHT22;15704;48.834;8.736;2023-08-08T02:23:34;12.20;99.90
28484;DHT22;15704;48.834;8.736;2023-08-08T02:26:01;12.30;99.90
28484;DHT22;15704;48.834;8.736;2023-08-08T02:28:28;12.20;99.90
28484;DHT22;15704;48.834;8.736;2023-08-08T02:30:55;12.20;99.90
28484;DHT22;15704;48.834;8.736;2023-08-08T02:33:22;12.10;99.90
28484;DHT22;15704;48.834;8.736;2023-08-08T02:35:48;12.10;99.90
28484;DHT22;15704;48.834;8.736;2023-08-08T02:38:15;12.10;99.90
28484;DHT22;15704;48.834;8.736;2023-08-08T02:40:42;12.10;99.90
28484;DHT22;15704;48.834;8.736;2023-08-08T02:43:09;12.10;99.90
28484;DHT22;15704;48.834;8.736;2023-08-08T02:45:37;12.10;99.90
28484;DHT22;15704;48.834;8.736;2023-08-08T02:48:05;12.10;99.90
28484;DHT22;15704;48.834;8.736;2023-08-08T02:50:32;12.10;99.90
28484;DHT22;15704;48.834;8.736;2023-08-08T02:52:58;12.10;99.90
28484;DHT22;15704;48.834;8.736;2023-08-08T02:55:25;12.10;99.90
28484;DHT22;15704;48.834;8.736;2023-08-08T02:57:52;12.10;99.90
28484;DHT22;15704;48.834;8.736;2023-08-08T03:00:19;12.20;99.90
28484;DHT22;15704;48.834;8.736;2023-08-08T03:02:45;12.20;99.90
28484;DHT22;15704;48.834;8.736;2023-08-08T03:05:12;12.30;99.90
28484;DHT22;15704;48.834;8.736;2023-08-08T03:07:39;12.40;99.90
28484;DHT22;15704;48.834;8.736;2023-08-08T03:10:06;12.50;99.90
28484;DHT22;15704;48.834;8.736;2023-08-08T03:12:33;12.60;99.90
28484;DHT22;15704;48.834;8.736;2023-08-08T03:15:00;12.60;99.90
28484;DHT22;15704;48.834;8.736;2023-08-08T03:17:26;12.70;99.90
28484;DHT22;15704;48.834;8.736;2023-08-08T03:19:53;12.80;99.90
28484;DHT22;15704;48.834;8.736;2023-08-08T03:22:20;12.90;99.90
28484;DHT22;15704;48.834;8.736;2023-08-08T03:24:47;12.90;99.90
28484;DHT22;15704;48.834;8.736;2023-08-08T03:27:14;12.90;99.90
28484;DHT22;15704;48.834;8.736;2023-08-08T03:29:40;13.00;99.90
28484;DHT22;15704;48.834;8.736;2023-08-08T03:32:08;13.00;99.90
28484;DHT22;15704;48.834;8.736;2023-08-08T03:34:35;13.00;99.90
28484;DHT22;15704;48.834;8.736;2023-08-08T03:37:02;13.00;99.90
28484;DHT22;15704;48.834;8.736;2023-08-08T03:39:29;13.00;99.90
28484;DHT22;15704;48.834;8.736;2023-08-08T03:41:55;13.00;99.90
28484;DHT22;15704;48.834;8.736;2023-08-08T03:44:23;12.90;99.90
28484;DHT22;15704;48.834;8.736;2023-08-08T03:46:50;12.90;99.90
28484;DHT22;15704;48.834;8.736;2023-08-08T03:49:20;12.80;99.90
28484;DHT22;15704;48.834;8.736;2023-08-08T03:51:47;12.80;99.90
28484;DHT22;15704;48.834;8.736;2023-08-08T03:54:16;12.70;99.90
28484;DHT22;15704;48.834;8.736;2023-08-08T03:56:43;12.60;99.90
28484;DHT22;15704;48.834;8.736;2023-08-08T03:59:10;12.60;99.90
28484;DHT22;15704;48.834;8.736;2023-08-08T04:01:37;12.50;99.90
28484;DHT22;15704;48.834;8.736;2023-08-08T04:04:04;12.50;99.90
28484;DHT22;15704;48.834;8.736;2023-08-08T04:06:32;12.40;99.90
28484;DHT22;15704;48.834;8.736;2023-08-08T04:08:58;12.30;99.90
28484;DHT22;15704;48.834;8.736;2023-08-08T04:11:27;12.30;99.90
28484;DHT22;15704;48.834;8.736;2023-08-08T04:13:54;12.30;99.90
28484;DHT22;15704;48.834;8.736;2023-08-08T04:16:21;12.50;99.90
28484;DHT22;15704;48.834;8.736;2023-08-08T04:18:50;12.60;99.90
28484;DHT22;15704;48.834;8.736;2023-08-08T04:21:17;12.70;99.90
28484;DHT22;15704;48.834;8.736;2023-08-08T04:23:44;12.70;99.90
28484;DHT22;15704;48.834;8.736;2023-08-08T04:26:10;12.80;99.90
28484;DHT22;15704;48.834;8.736;2023-08-08T04:28:37;12.80;99.90
28484;DHT22;15704;48.834;8.736;2023-08-08T04:31:04;12.90;99.90
28484;DHT22;15704;48.834;8.736;2023-08-08T04:33:31;12.90;99.90
28484;DHT22;15704;48.834;8.736;2023-08-08T04:35:57;12.90;99.90
28484;DHT22;15704;48.834;8.736;2023-08-08T04:38:25;13.00;99.90
28484;DHT22;15704;48.834;8.736;2023-08-08T04:40:52;13.00;99.90
28484;DHT22;15704;48.834;8.736;2023-08-08T04:43:18;13.00;99.90
28484;DHT22;15704;48.834;8.736;2023-08-08T04:45:45;13.10;99.90
28484;DHT22;15704;48.834;8.736;2023-08-08T04:48:12;13.20;99.90
28484;DHT22;15704;48.834;8.736;2023-08-08T04:50:41;13.30;99.90
28484;DHT22;15704;48.834;8.736;2023-08-08T04:53:08;13.40;99.90
28484;DHT22;15704;48.834;8.736;2023-08-08T04:55:35;13.30;99.90
28484;DHT22;15704;48.834;8.736;2023-08-08T04:58:02;13.30;99.90
28484;DHT22;15704;48.834;8.736;2023-08-08T05:00:29;13.30;99.90
28484;DHT22;15704;48.834;8.736;2023-08-08T05:02:56;13.20;99.90
28484;DHT22;15704;48.834;8.736;2023-08-08T05:05:23;13.20;99.90
28484;DHT22;15704;48.834;8.736;2023-08-08T05:07:49;13.20;99.90
28484;DHT22;15704;48.834;8.736;2023-08-08T05:10:16;13.20;99.90
28484;DHT22;15704;48.834;8.736;2023-08-08T05:12:44;13.10;99.90
28484;DHT22;15704;48.834;8.736;2023-08-08T05:15:11;13.20;99.90
28484;DHT22;15704;48.834;8.736;2023-08-08T05:17:38;13.20;99.90
28484;DHT22;15704;48.834;8.736;2023-08-08T05:20:05;13.30;99.90
28484;DHT22;15704;48.834;8.736;2023-08-08T05:22:32;13.30;99.90
28484;DHT22;15704;48.834;8.736;2023-08-08T05:24:59;13.40;99.90
28484;DHT22;15704;48.834;8.736;2023-08-08T05:27:26;13.40;99.90
28484;DHT22;15704;48.834;8.736;2023-08-08T05:29:52;13.40;99.90
28484;DHT22;15704;48.834;8.736;2023-08-08T05:32:19;13.50;99.90
28484;DHT22;15704;48.834;8.736;2023-08-08T05:34:46;13.50;99.90
28484;DHT22;15704;48.834;8.736;2023-08-08T05:37:13;13.60;99.90
28484;DHT22;15704;48.834;8.736;2023-08-08T05:39:43;13.50;99.90
28484;DHT22;15704;48.834;8.736;2023-08-08T05:42:11;13.60;99.90
28484;DHT22;15704;48.834;8.736;2023-08-08T05:44:38;13.70;99.90
28484;DHT22;15704;48.834;8.736;2023-08-08T05:47:05;13.70;99.90
28484;DHT22;15704;48.834;8.736;2023-08-08T05:49:31;13.80;99.90
28484;DHT22;15704;48.834;8.736;2023-08-08T05:51:58;13.80;99.90
28484;DHT22;15704;48.834;8.736;2023-08-08T05:54:25;13.90;99.90
28484;DHT22;15704;48.834;8.736;2023-08-08T05:56:52;14.00;99.90
28484;DHT22;15704;48.834;8.736;2023-08-08T05:59:19;14.00;99.90
28484;DHT22;15704;48.834;8.736;2023-08-08T06:01:46;14.10;99.90
28484;DHT22;15704;48.834;8.736;2023-08-08T06:04:13;14.10;99.90
28484;DHT22;15704;48.834;8.736;2023-08-08T06:06:41;14.20;99.90
28484;DHT22;15704;48.834;8.736;2023-08-08T06:09:07;14.20;99.90
28484;DHT22;15704;48.834;8.736;2023-08-08T06:11:35;14.30;99.90
28484;DHT22;15704;48.834;8.736;2023-08-08T06:14:02;14.40;99.90
28484;DHT22;15704;48.834;8.736;2023-08-08T06:16:29;14.50;99.90
28484;DHT22;15704;48.834;8.736;2023-08-08T06:18:56;14.60;99.90
28484;DHT22;15704;48.834;8.736;2023-08-08T06:21:23;14.80;99.90
28484;DHT22;15704;48.834;8.736;2023-08-08T06:23:49;14.80;99.90
28484;DHT22;15704;48.834;8.736;2023-08-08T06:26:16;14.80;99.90
28484;DHT22;15704;48.834;8.736;2023-08-08T06:28:43;14.90;99.90
28484;DHT22;15704;48.834;8.736;2023-08-08T06:31:10;14.90;99.90
28484;DHT22;15704;48.834;8.736;2023-08-08T06:33:37;15.00;99.90
28484;DHT22;15704;48.834;8.736;2023-08-08T06:36:04;15.00;99.90
28484;DHT22;15704;48.834;8.736;2023-08-08T06:38:31;15.10;99.90
28484;DHT22;15704;48.834;8.736;2023-08-08T06:41:02;15.20;99.90
28484;DHT22;15704;48.834;8.736;2023-08-08T06:43:30;15.20;99.90
28484;DHT22;15704;48.834;8.736;2023-08-08T06:45:57;15.20;99.90
28484;DHT22;15704;48.834;8.736;2023-08-08T06:48:24;15.30;99.90
28484;DHT22;15704;48.834;8.736;2023-08-08T06:50:51;15.20;99.90
28484;DHT22;15704;48.834;8.736;2023-08-08T06:53:18;15.30;99.90
28484;DHT22;15704;48.834;8.736;2023-08-08T06:55:45;15.50;99.90
28484;DHT22;15704;48.834;8.736;2023-08-08T06:58:11;15.60;99.90
28484;DHT22;15704;48.834;8.736;2023-08-08T07:00:38;15.60;99.90
28484;DHT22;15704;48.834;8.736;2023-08-08T07:03:06;15.60;99.90
28484;DHT22;15704;48.834;8.736;2023-08-08T07:05:33;15.60;99.90
28484;DHT22;15704;48.834;8.736;2023-08-08T07:07:59;15.70;99.90
28484;DHT22;15704;48.834;8.736;2023-08-08T07:10:27;15.70;99.90
28484;DHT22;15704;48.834;8.736;2023-08-08T07:12:54;15.60;99.90
28484;DHT22;15704;48.834;8.736;2023-08-08T07:15:21;15.60;99.90
28484;DHT22;15704;48.834;8.736;2023-08-08T07:17:48;15.60;99.90
28484;DHT22;15704;48.834;8.736;2023-08-08T07:20:15;15.70;99.90
28484;DHT22;15704;48.834;8.736;2023-08-08T07:22:42;15.60;99.90
28484;DHT22;15704;48.834;8.736;2023-08-08T07:25:09;15.70;99.90
28484;DHT22;15704;48.834;8.736;2023-08-08T07:27:35;15.80;99.90
28484;DHT22;15704;48.834;8.736;2023-08-08T07:30:03;15.80;99.90
28484;DHT22;15704;48.834;8.736;2023-08-08T07:32:30;15.90;99.90
28484;DHT22;15704;48.834;8.736;2023-08-08T07:34:59;16.00;99.90
28484;DHT22;15704;48.834;8.736;2023-08-08T07:37:28;15.90;99.90
28484;DHT22;15704;48.834;8.736;2023-08-08T07:39:54;15.90;99.90
28484;DHT22;15704;48.834;8.736;2023-08-08T07:42:21;16.10;99.90
28484;DHT22;15704;48.834;8.736;2023-08-08T07:44:48;16.00;99.90
28484;DHT22;15704;48.834;8.736;2023-08-08T07:47:15;16.30;99.90
28484;DHT22;15704;48.834;8.736;2023-08-08T07:49:41;16.50;99.90
28484;DHT22;15704;48.834;8.736;2023-08-08T07:52:08;16.60;99.90
28484;DHT22;15704;48.834;8.736;2023-08-08T07:54:35;16.90;99.90
28484;DHT22;15704;48.834;8.736;2023-08-08T07:57:02;16.90;99.90
28484;DHT22;15704;48.834;8.736;2023-08-08T07:59:29;16.90;99.90
28484;DHT22;15704;48.834;8.736;2023-08-08T08:01:56;17.00;99.90
28484;DHT22;15704;48.834;8.736;2023-08-08T08:04:23;17.30;99.90
28484;DHT22;15704;48.834;8.736;2023-08-08T08:06:49;17.60;99.90
28484;DHT22;15704;48.834;8.736;2023-08-08T08:09:16;17.50;99.90
28484;DHT22;15704;48.834;8.736;2023-08-08T08:11:43;17.60;99.90
28484;DHT22;15704;48.834;8.736;2023-08-08T08:14:10;17.40;99.90
28484;DHT22;15704;48.834;8.736;2023-08-08T08:16:36;17.30;99.90
28484;DHT22;15704;48.834;8.736;2023-08-08T08:19:03;17.40;99.90
28484;DHT22;15704;48.834;8.736;2023-08-08T08:21:30;17.20;99.90
28484;DHT22;15704;48.834;8.736;2023-08-08T08:23:57;17.10;99.90
28484;DHT22;15704;48.834;8.736;2023-08-08T08:26:24;17.00;99.90
28484;DHT22;15704;48.834;8.736;2023-08-08T08:28:51;17.20;99.90
28484;DHT22;15704;48.834;8.736;2023-08-08T08:31:18;17.30;99.90
28484;DHT22;15704;48.834;8.736;2023-08-08T08:33:45;17.30;99.90
28484;DHT22;15704;48.834;8.736;2023-08-08T08:36:12;17.30;99.90
28484;DHT22;15704;48.834;8.736;2023-08-08T08:38:40;17.30;99.90
28484;DHT22;15704;48.834;8.736;2023-08-08T08:41:08;17.50;99.90
28484;DHT22;15704;48.834;8.736;2023-08-08T08:43:37;17.70;99.90
28484;DHT22;15704;48.834;8.736;2023-08-08T08:46:04;17.70;99.90
28484;DHT22;15704;48.834;8.736;2023-08-08T08:48:32;17.60;99.90
28484;DHT22;15704;48.834;8.736;2023-08-08T08:50:59;17.70;99.90
28484;DHT22;15704;48.834;8.736;2023-08-08T08:53:26;17.90;99.90
28484;DHT22;15704;48.834;8.736;2023-08-08T08:55:53;17.60;99.90
28484;DHT22;15704;48.834;8.736;2023-08-08T08:58:21;17.80;99.90
28484;DHT22;15704;48.834;8.736;2023-08-08T09:00:49;18.00;99.90
28484;DHT22;15704;48.834;8.736;2023-08-08T09:03:16;17.90;99.90
28484;DHT22;15704;48.834;8.736;2023-08-08T09:05:43;18.40;99.90
28484;DHT22;15704;48.834;8.736;2023-08-08T09:08:11;18.30;99.90
28484;DHT22;15704;48.834;8.736;2023-08-08T09:10:39;18.30;99.90
28484;DHT22;15704;48.834;8.736;2023-08-08T09:13:06;18.20;99.90
28484;DHT22;15704;48.834;8.736;2023-08-08T09:15:34;18.30;99.90
28484;DHT22;15704;48.834;8.736;2023-08-08T09:18:01;18.20;99.90
28484;DHT22;15704;48.834;8.736;2023-08-08T09:20:28;18.30;99.90
28484;DHT22;15704;48.834;8.736;2023-08-08T09:22:56;18.30;99.90
28484;DHT22;15704;48.834;8.736;2023-08-08T09:25:23;18.60;99.90
28484;DHT22;15704;48.834;8.736;2023-08-08T09:27:52;18.80;99.90
28484;DHT22;15704;48.834;8.736;2023-08-08T09:30:22;18.80;99.90
28484;DHT22;15704;48.834;8.736;2023-08-08T09:32:49;18.80;99.90
28484;DHT22;15704;48.834;8.736;2023-08-08T09:35:16;18.80;99.90
28484;DHT22;15704;48.834;8.736;2023-08-08T09:37:43;18.90;99.90
28484;DHT22;15704;48.834;8.736;2023-08-08T09:40:10;19.00;99.90
28484;DHT22;15704;48.834;8.736;2023-08-08T09:42:40;18.70;99.90
28484;DHT22;15704;48.834;8.736;2023-08-08T09:45:08;18.80;99.90
28484;DHT22;15704;48.834;8.736;2023-08-08T09:47:35;18.60;99.90
28484;DHT22;15704;48.834;8.736;2023-08-08T09:50:05;18.40;99.90
28484;DHT22;15704;48.834;8.736;2023-08-08T09:52:36;18.20;99.90
28484;DHT22;15704;48.834;8.736;2023-08-08T09:55:06;18.60;99.90
28484;DHT22;15704;48.834;8.736;2023-08-08T09:57:33;18.90;99.90
28484;DHT22;15704;48.834;8.736;2023-08-08T10:00:01;18.70;99.90
28484;DHT22;15704;48.834;8.736;2023-08-08T10:02:31;18.90;99.90
28484;DHT22;15704;48.834;8.736;2023-08-08T10:04:59;19.00;99.90
28484;DHT22;15704;48.834;8.736;2023-08-08T10:07:26;19.20;99.80
28484;DHT22;15704;48.834;8.736;2023-08-08T10:09:53;19.30;99.90
28484;DHT22;15704;48.834;8.736;2023-08-08T10:12:20;19.20;99.30
28484;DHT22;15704;48.834;8.736;2023-08-08T10:14:47;19.40;99.90
28484;DHT22;15704;48.834;8.736;2023-08-08T10:17:15;19.50;99.20
28484;DHT22;15704;48.834;8.736;2023-08-08T10:19:53;19.50;99.40
28484;DHT22;15704;48.834;8.736;2023-08-08T10:22:24;19.50;99.90
28484;DHT22;15704;48.834;8.736;2023-08-08T10:24:52;19.70;99.90
28484;DHT22;15704;48.834;8.736;2023-08-08T10:27:36;19.50;99.90
28484;DHT22;15704;48.834;8.736;2023-08-08T10:30:08;19.20;99.90
28484;DHT22;15704;48.834;8.736;2023-08-08T10:32:44;19.20;99.90
28484;DHT22;15704;48.834;8.736;2023-08-08T10:35:13;19.20;99.90
28484;DHT22;15704;48.834;8.736;2023-08-08T10:37:52;19.40;99.90
28484;DHT22;15704;48.834;8.736;2023-08-08T10:40:19;19.50;99.90
28484;DHT22;15704;48.834;8.736;2023-08-08T10:42:47;19.30;99.90
28484;DHT22;15704;48.834;8.736;2023-08-08T10:45:15;19.40;99.90
28484;DHT22;15704;48.834;8.736;2023-08-08T10:47:43;19.80;99.20
28484;DHT22;15704;48.834;8.736;2023-08-08T10:50:14;19.50;99.90
28484;DHT22;15704;48.834;8.736;2023-08-08T10:55:39;19.60;99.50
28484;DHT22;15704;48.834;8.736;2023-08-08T11:00:39;19.80;99.00
28484;DHT22;15704;48.834;8.736;2023-08-08T11:03:09;19.60;98.60
28484;DHT22;15704;48.834;8.736;2023-08-08T11:05:37;19.60;98.20
28484;DHT22;15704;48.834;8.736;2023-08-08T11:08:05;19.40;97.80
28484;DHT22;15704;48.834;8.736;2023-08-08T11:10:36;19.30;98.20
28484;DHT22;15704;48.834;8.736;2023-08-08T11:13:05;18.90;99.50
28484;DHT22;15704;48.834;8.736;2023-08-08T11:15:33;18.60;99.90
28484;DHT22;15704;48.834;8.736;2023-08-08T11:18:02;18.70;99.80
28484;DHT22;15704;48.834;8.736;2023-08-08T11:20:31;18.60;99.00
28484;DHT22;15704;48.834;8.736;2023-08-08T11:22:59;18.80;99.00
28484;DHT22;15704;48.834;8.736;2023-08-08T11:25:27;19.00;98.00
28484;DHT22;15704;48.834;8.736;2023-08-08T11:27:56;19.00;98.90
28484;DHT22;15704;48.834;8.736;2023-08-08T11:30:24;19.00;98.90
28484;DHT22;15704;48.834;8.736;2023-08-08T11:32:54;19.00;99.60
28484;DHT22;15704;48.834;8.736;2023-08-08T11:35:25;18.90;98.50
28484;DHT22;15704;48.834;8.736;2023-08-08T11:37:53;19.00;98.30
28484;DHT22;15704;48.834;8.736;2023-08-08T11:40:22;18.80;99.00
28484;DHT22;15704;48.834;8.736;2023-08-08T11:42:51;19.00;99.50
28484;DHT22;15704;48.834;8.736;2023-08-08T11:45:18;19.10;99.20
28484;DHT22;15704;48.834;8.736;2023-08-08T11:47:53;19.30;99.10
28484;DHT22;15704;48.834;8.736;2023-08-08T11:50:23;19.40;98.90
28484;DHT22;15704;48.834;8.736;2023-08-08T11:52:54;19.40;98.50
28484;DHT22;15704;48.834;8.736;2023-08-08T11:55:27;19.40;98.70
28484;DHT22;15704;48.834;8.736;2023-08-08T11:57:55;19.80;99.30
28484;DHT22;15704;48.834;8.736;2023-08-08T12:00:29;19.70;98.60
28484;DHT22;15704;48.834;8.736;2023-08-08T12:02:58;19.90;98.10
28484;DHT22;15704;48.834;8.736;2023-08-08T12:05:28;20.20;98.20
28484;DHT22;15704;48.834;8.736;2023-08-08T12:07:55;20.20;97.80
28484;DHT22;15704;48.834;8.736;2023-08-08T12:10:23;20.20;98.20
28484;DHT22;15704;48.834;8.736;2023-08-08T12:12:54;20.10;98.20
28484;DHT22;15704;48.834;8.736;2023-08-08T12:15:21;20.00;98.80
28484;DHT22;15704;48.834;8.736;2023-08-08T12:17:49;20.20;98.80
28484;DHT22;15704;48.834;8.736;2023-08-08T12:20:16;19.90;99.50
28484;DHT22;15704;48.834;8.736;2023-08-08T12:22:43;19.50;99.20
28484;DHT22;15704;48.834;8.736;2023-08-08T12:25:10;19.50;99.60
28484;DHT22;15704;48.834;8.736;2023-08-08T12:27:36;19.30;99.70
28484;DHT22;15704;48.834;8.736;2023-08-08T12:30:06;19.50;99.90
28484;DHT22;15704;48.834;8.736;2023-08-08T12:32:33;19.40;99.70
28484;DHT22;15704;48.834;8.736;2023-08-08T12:35:00;19.50;99.90
28484;DHT22;15704;48.834;8.736;2023-08-08T12:37:27;19.70;99.90
28484;DHT22;15704;48.834;8.736;2023-08-08T12:39:54;19.80;99.70
28484;DHT22;15704;48.834;8.736;2023-08-08T12:42:21;19.90;99.90
28484;DHT22;15704;48.834;8.736;2023-08-08T12:44:48;20.00;99.30
28484;DHT22;15704;48.834;8.736;2023-08-08T12:47:18;19.90;99.90
28484;DHT22;15704;48.834;8.736;2023-08-08T12:49:46;20.10;99.00
28484;DHT22;15704;48.834;8.736;2023-08-08T12:52:13;20.30;99.90
28484;DHT22;15704;48.834;8.736;2023-08-08T12:54:40;20.50;98.70
28484;DHT22;15704;48.834;8.736;2023-08-08T12:57:07;20.50;98.20
28484;DHT22;15704;48.834;8.736;2023-08-08T12:59:35;20.20;99.20
28484;DHT22;15704;48.834;8.736;2023-08-08T13:02:02;20.30;98.50
28484;DHT22;15704;48.834;8.736;2023-08-08T13:04:30;20.10;98.70
28484;DHT22;15704;48.834;8.736;2023-08-08T13:06:57;19.90;97.60
28484;DHT22;15704;48.834;8.736;2023-08-08T13:09:23;19.80;98.40
28484;DHT22;15704;48.834;8.736;2023-08-08T13:11:50;20.00;98.60
28484;DHT22;15704;48.834;8.736;2023-08-08T13:14:17;20.10;97.90
28484;DHT22;15704;48.834;8.736;2023-08-08T13:16:44;19.90;98.20
28484;DHT22;15704;48.834;8.736;2023-08-08T13:19:11;20.20;97.90
28484;DHT22;15704;48.834;8.736;2023-08-08T13:21:37;20.40;97.60
28484;DHT22;15704;48.834;8.736;2023-08-08T13:24:06;20.40;97.20
28484;DHT22;15704;48.834;8.736;2023-08-08T13:26:32;20.30;95.10
28484;DHT22;15704;48.834;8.736;2023-08-08T13:28:59;20.30;95.80
28484;DHT22;15704;48.834;8.736;2023-08-08T13:31:26;19.90;95.70
28484;DHT22;15704;48.834;8.736;2023-08-08T13:33:53;19.90;96.50
28484;DHT22;15704;48.834;8.736;2023-08-08T13:36:20;20.00;95.90
28484;DHT22;15704;48.834;8.736;2023-08-08T13:38:47;20.20;96.30
28484;DHT22;15704;48.834;8.736;2023-08-08T13:41:14;20.40;95.70
28484;DHT22;15704;48.834;8.736;2023-08-08T13:43:41;20.80;95.90
28484;DHT22;15704;48.834;8.736;2023-08-08T13:46:08;20.80;95.30
28484;DHT22;15704;48.834;8.736;2023-08-08T13:48:36;20.70;95.90
28484;DHT22;15704;48.834;8.736;2023-08-08T13:51:03;20.80;96.90
28484;DHT22;15704;48.834;8.736;2023-08-08T13:53:30;20.70;97.40
28484;DHT22;15704;48.834;8.736;2023-08-08T13:55:57;20.90;96.90
28484;DHT22;15704;48.834;8.736;2023-08-08T13:58:24;20.60;97.10
28484;DHT22;15704;48.834;8.736;2023-08-08T14:00:51;20.30;97.00
28484;DHT22;15704;48.834;8.736;2023-08-08T14:03:18;20.40;98.00
28484;DHT22;15704;48.834;8.736;2023-08-08T14:05:45;20.10;97.80
28484;DHT22;15704;48.834;8.736;2023-08-08T14:08:12;20.20;97.80
28484;DHT22;15704;48.834;8.736;2023-08-08T14:10:39;20.30;97.90
28484;DHT22;15704;48.834;8.736;2023-08-08T14:13:06;20.20;97.80
28484;DHT22;15704;48.834;8.736;2023-08-08T14:15:33;20.20;97.50
28484;DHT22;15704;48.834;8.736;2023-08-08T14:18:00;20.20;97.80
28484;DHT22;15704;48.834;8.736;2023-08-08T14:20:27;20.20;98.50
28484;DHT22;15704;48.834;8.736;2023-08-08T14:22:54;19.90;97.90
28484;DHT22;15704;48.834;8.736;2023-08-08T14:25:21;19.80;98.80
28484;DHT22;15704;48.834;8.736;2023-08-08T14:27:49;19.50;98.40
28484;DHT22;15704;48.834;8.736;2023-08-08T14:30:16;19.30;98.90
28484;DHT22;15704;48.834;8.736;2023-08-08T14:32:43;19.30;99.00
28484;DHT22;15704;48.834;8.736;2023-08-08T14:35:10;19.30;99.30
28484;DHT22;15704;48.834;8.736;2023-08-08T14:37:37;19.70;99.00
28484;DHT22;15704;48.834;8.736;2023-08-08T14:40:04;19.90;99.00
28484;DHT22;15704;48.834;8.736;2023-08-08T14:42:32;19.90;98.90
28484;DHT22;15704;48.834;8.736;2023-08-08T14:44:59;19.70;98.90
28484;DHT22;15704;48.834;8.736;2023-08-08T14:47:25;19.70;99.00
28484;DHT22;15704;48.834;8.736;2023-08-08T14:49:53;19.70;99.40
28484;DHT22;15704;48.834;8.736;2023-08-08T14:52:20;19.90;98.70
28484;DHT22;15704;48.834;8.736;2023-08-08T14:54:46;19.90;98.70
28484;DHT22;15704;48.834;8.736;2023-08-08T14:57:13;20.10;98.80
28484;DHT22;15704;48.834;8.736;2023-08-08T14:59:40;20.10;98.70
28484;DHT22;15704;48.834;8.736;2023-08-08T15:02:07;20.20;98.80
28484;DHT22;15704;48.834;8.736;2023-08-08T15:04:34;20.20;98.80
28484;DHT22;15704;48.834;8.736;2023-08-08T15:07:01;20.10;99.20
28484;DHT22;15704;48.834;8.736;2023-08-08T15:09:29;19.90;98.00
28484;DHT22;15704;48.834;8.736;2023-08-08T15:11:55;20.30;98.90
28484;DHT22;15704;48.834;8.736;2023-08-08T15:14:22;20.40;98.30
28484;DHT22;15704;48.834;8.736;2023-08-08T15:16:52;20.60;98.40
28484;DHT22;15704;48.834;8.736;2023-08-08T15:19:20;20.70;98.30
28484;DHT22;15704;48.834;8.736;2023-08-08T15:21:47;20.90;98.20
28484;DHT22;15704;48.834;8.736;2023-08-08T15:24:14;20.90;97.20
28484;DHT22;15704;48.834;8.736;2023-08-08T15:26:40;20.80;97.60
28484;DHT22;15704;48.834;8.736;2023-08-08T15:29:07;21.00;97.80
28484;DHT22;15704;48.834;8.736;2023-08-08T15:31:34;20.90;97.00
28484;DHT22;15704;48.834;8.736;2023-08-08T15:34:02;21.20;97.50
28484;DHT22;15704;48.834;8.736;2023-08-08T15:36:29;20.90;97.30
28484;DHT22;15704;48.834;8.736;2023-08-08T15:38:56;20.80;97.50
28484;DHT22;15704;48.834;8.736;2023-08-08T15:41:22;20.50;96.20